首页
METAR-TAF:

METAR-TAF

机场 :

巴勒莫, 意大利

纬度: 38-11N, 经度: 013-06E, 海拔: 21米

当前天气观测

该预报发布于4小时和55分钟前的16:50 UTC
风速17节,风向东转东北
温度 12°C
湿度 67%
气压 1014 hPa
能见度10公里或以上
1500米以下无云,无积雨云

METAR: LICJ 011650Z 07017KT CAVOK 12/06 Q1014

时间: 23:45 (21:45 UTC)

预报

该预报发布于9小时和42分钟前的12:03 UTC
预报有效从01日的 12点(UTC)到 02日的 12点(UTC)
风速13节,风向
能见度10公里或以上
散云层高于3000英尺
成为
从 01日的 16点(UTC)到 01日的 18点(UTC)
风速10节,风向东转东北
短暂存在
从 02日的 03点(UTC)到 02日的 12点(UTC)

TAF: LICJ 011203Z 0112/0212 36013KT 9999 SCT030 BECMG 0116/0118 07010KT TEMPO 0203/0212 RA

超过4000个机场的气象观测和天气预报(METAR&TAF报告)。

可查询的气象台以黄色和红色小点在地图上表示。

将鼠标移到小点上方,可查看气象台名称。

然后点击查看天气观测和预报。

如需切换地图:点击带黑十字的绿色按钮放大地图;点击带横线的绿色按钮缩小地图;或者点击绿色箭头查看邻近地区的地图。


METAR-TAF: